Historyczne dane pomiarowe

Dodano dane terminowe – wersja testowa.

Dane z okresu 1951-2019

Wersja bazy: 1.34 [2019-03-16, lista zmian], aktualizacja planowana na 2019-04-15

Dane meteo z obszaru Polski uzyskane na podstawie danych udostępnionych przez Instytut Meteorologii i Gospodarki Wodnej – Państwowy Instytut Badawczy.

 

Wybierz Datę:    

       

TemperaturaWilgotnośćWiatrCiśnienieOpadyŚniegCzas trwania zjawisk
 Stacja t tx tn tng RH VA  wxwx mslp ppp RRR   cm mm wxwxwxwxwxwxwx
1987-08-14 13.6 17.1 7.8- 90.5- 8.0 2.0---- 3.2------------
1987-08-13 13.4 20.3 5.3- 75.3- 1.7 1.3---- 0.1------------
1987-08-12 11.9 16.8 7.6- 78.5- 2.0 3.3---- 0.2------------
1987-08-11 12.1 16.2 10.0- 89.8- 6.3 3.7---- 12.6------------
1987-08-10 12.6 17.2 9.8- 91.5- 8.0 1.7---- 17.6------------
1987-08-09 14.3 19.3 8.5- 79.5- 5.3 2.3---- 0.1------------
1987-08-08 13.2 18.7 6.9- 70.0- 4.0 5.3---- 0.0------------
1987-08-07 12.4 17.6 7.0- 72.5- 2.7 3.3---- 0.0------------
1987-08-06 11.0 13.8 10.2- 91.3- 6.3 4.3---- 1.8------------
1987-08-05 11.2 14.0 9.5- 93.0- 8.0 4.7---- 29.5------------
1987-08-04 11.9 16.2 10.0- 87.8- 6.3 3.7---- 1.4------------
1987-08-03 12.8 17.2 8.8- 78.3- 7.0 4.7---- 2.6------------
1987-08-02 12.5 17.9 9.0- 81.3- 3.3 6.0---- 2.5------------
1987-08-01 14.7 19.2 13.4- 84.8- 6.3 4.0---- 1.0------------
1987-07-31 14.3 17.8 12.0- 89.5- 8.0 2.3---- 4.4------------
1987-07-30 15.5 20.9 9.3- 85.8- 8.0 2.3---- 1.3------------
1987-07-29 13.7 17.1 10.4- 76.8- 6.0 3.0---- 0.0------------
1987-07-28 12.6 16.5 10.5- 87.5- 8.0 5.3---- 3.4------------
1987-07-27 11.7 15.5 9.3- 79.3- 8.0 4.3---- 0.4------------
1987-07-26 11.4 17.0 8.6- 77.8- 7.3 4.3---- 0.4------------
1987-07-25 14.0 18.0 10.6- 79.8- 5.3 3.7---- 0.5------------
1987-07-24 17.6 22.3 13.6- 79.0- 6.3 5.0---- 1.4------------
1987-07-23 17.4 22.2 12.8- 88.0- 6.0 1.3---- 13.5------------
1987-07-22 17.1 21.5 14.4- 91.8- 6.3 0.7---- 1.8------------
1987-07-21 17.5 23.9 11.0- 82.0- 7.3 1.0---- 6.2------------
1987-07-20 17.3 23.0 11.8- 81.8- 5.0 1.7---- 0.0------------
1987-07-19 16.9 20.0 15.0- 92.3- 7.3 1.7---- 8.9------------
1987-07-18 19.5 22.2 16.9- 84.3- 7.7 1.7---- 11.5------------
1987-07-17 20.0 25.5 12.5- 69.3- 5.3 6.7---- 0.0------------
1987-07-16 17.5 23.0 11.0- 66.8- 5.7 3.7---- 0.0------------
1987-07-15 17.0 22.4 7.3- 64.0- 2.3 2.3---- 0.0------------
1987-07-14 15.6 20.5 10.0- 76.8- 2.0 2.3---- 0.0------------
1987-07-13 14.3 17.6 12.0- 77.0- 7.0 5.3---- 0.5------------
1987-07-12 16.7 19.4 13.8- 89.3- 6.7 3.3---- 9.5------------
1987-07-11 13.3 16.4 9.8- 92.8- 8.0 0.7---- 11.5------------
1987-07-10 12.6 16.1 9.0- 77.5- 4.3 5.3---- 1.5------------
1987-07-09 15.3 19.6 12.3- 76.0- 4.3 3.0---- 5.5------------
1987-07-08 20.6 27.3 15.6- 68.8- 4.0 1.0---- 0.2------------
1987-07-07 20.5 27.4 10.1- 63.8- 0.0 2.0---- 0.0------------
1987-07-06 17.5 24.8 6.0- 65.5- 0.0 1.0---- 0.0------------
1987-07-05 14.4 21.4 6.3- 72.5- 2.7 1.0---- 0.0------------
1987-07-04 14.9 18.2 9.0- 74.8- 4.0 3.0---- 0.0------------
1987-07-03 15.3 22.0 6.3- 70.3- 2.0 1.7---- 0.0------------
1987-07-02 15.3 20.2 10.1- 73.5- 3.3 2.7---- 0.0------------
1987-07-01 20.0 26.2 16.1- 83.3- 6.3 1.7---- 0.6------------
1987-06-30 24.1 30.0 16.6- 78.5- 6.3 0.7---- 0.0------------
1987-06-29 17.8 23.6 8.6- 90.8- 8.0 2.0---- 0.0------------
1987-06-28 14.9 18.6 10.4- 74.3- 4.3 2.0---- 1.8------------
1987-06-27 15.2 19.4 11.1- 72.3- 4.3 2.0---- 3.8------------
1987-06-26 14.4 19.4 7.6- 68.5- 5.7 5.7---- 0.0------------
1987-06-25 11.4 14.2 5.3- 80.8- 5.0 2.7---- 1.2------------
1987-06-24 12.6 15.2 10.2- 83.3- 7.7 3.3---- 0.4------------
1987-06-23 13.4 18.2 7.1- 81.8- 8.0 1.3---- 1.8------------
1987-06-22 12.5 16.2 11.1- 88.8- 8.0 1.3---- 0.0------------
1987-06-21 15.4 22.5 9.4- 82.5- 6.7 3.3---- 3.4------------
1987-06-20 14.6 21.2 5.9- 67.3- 6.3 2.0---- 0.0------------
1987-06-19 11.3 15.0 8.2- 77.8- 6.7 3.7---- 0.0------------
1987-06-18 9.8 13.8 6.3- 82.0- 6.0 5.7---- 6.9------------
1987-06-17 11.0 14.2 7.1- 69.0- 6.0 6.0---- 0.0------------
1987-06-16 9.3 12.2 7.0- 92.8- 8.0 5.7---- 6.8------------
1102.3 ms

 

Źródłem pochodzenia danych jest Instytut Meteorologii i Gospodarki Wodnej – Państwowy Instytut Badawczy. Dane Instytutu Meteorologii i Gospodarki Wodnej – Państwowego Instytutu Badawczego zostały przetworzone.

Dane źródłowe można odnaleźć na stronie https://dane.imgw.pl